createdAt,value
2023-04-19T00:00:45.781Z,25.63
2023-04-19T00:06:32.729Z,22.05
2023-04-19T00:12:20.170Z,34.85
2023-04-19T00:18:09.619Z,39.35
2023-04-19T00:23:56.929Z,21.02
2023-04-19T00:29:44.062Z,36.05
2023-04-19T00:35:31.093Z,25.33
2023-04-19T00:41:18.436Z,27.58
2023-04-19T00:47:11.005Z,27.20
2023-04-19T00:52:58.308Z,24.10
2023-04-19T00:58:46.294Z,23.42
2023-04-19T01:04:34.067Z,26.98
2023-04-19T01:10:22.630Z,31.02
2023-04-19T01:16:11.790Z,32.63
2023-04-19T01:21:58.721Z,27.33
2023-04-19T01:27:46.156Z,34.35
2023-04-19T01:33:33.021Z,33.65
2023-04-19T01:39:20.534Z,24.17
2023-04-19T01:45:09.039Z,26.02
2023-04-19T01:50:56.018Z,27.70
2023-04-19T01:56:42.651Z,29.73
2023-04-19T02:02:30.475Z,30.25
2023-04-19T02:08:17.845Z,29.33
2023-04-19T02:14:04.690Z,30.45
2023-04-19T02:19:52.076Z,37.28
2023-04-19T02:25:38.756Z,25.10
2023-04-19T02:31:25.478Z,36.28
2023-04-19T02:37:12.132Z,31.27
2023-04-19T02:43:01.613Z,29.30
2023-04-19T02:48:48.609Z,28.20
2023-04-19T02:54:36.614Z,31.30
2023-04-19T03:00:23.549Z,27.13
2023-04-19T03:06:23.022Z,43.35
2023-04-19T03:12:12.570Z,26.52
2023-04-19T03:17:59.774Z,30.00
2023-04-19T03:23:47.528Z,31.08
2023-04-19T03:29:34.458Z,37.53
2023-04-19T03:35:26.517Z,34.75
2023-04-19T03:41:25.642Z,40.07
2023-04-19T03:47:32.646Z,33.97
2023-04-19T03:53:19.938Z,42.25
2023-04-19T03:59:06.931Z,30.73
2023-04-19T04:04:56.948Z,39.85
2023-04-19T04:10:46.532Z,43.67
2023-04-19T04:16:34.357Z,31.67
2023-04-19T04:22:21.365Z,33.78
2023-04-19T04:28:10.425Z,52.05
2023-04-19T04:33:59.486Z,33.55
2023-04-19T04:39:46.457Z,54.97
2023-04-19T04:45:33.926Z,36.53
2023-04-19T04:51:22.453Z,44.60
2023-04-19T04:57:12.506Z,38.22
2023-04-19T05:03:00.285Z,39.05
2023-04-19T05:08:48.475Z,38.47
2023-04-19T05:14:46.314Z,39.67
2023-04-19T05:20:34.065Z,30.85
2023-04-19T05:26:27.987Z,49.40
2023-04-19T05:32:15.097Z,38.45
2023-04-19T05:38:07.157Z,36.95
2023-04-19T05:43:54.928Z,38.35
2023-04-19T05:49:43.371Z,35.67
2023-04-19T05:55:40.419Z,38.88
2023-04-19T06:01:27.639Z,27.50
2023-04-19T06:07:27.519Z,45.10
2023-04-19T06:13:22.122Z,31.48
2023-04-19T06:19:11.672Z,37.20
2023-04-19T06:24:58.434Z,36.83
2023-04-19T06:30:46.016Z,32.60
2023-04-19T06:36:32.953Z,36.28
2023-04-19T06:42:35.226Z,28.90
2023-04-19T06:48:23.120Z,29.00
2023-04-19T06:54:10.245Z,29.10
2023-04-19T06:59:59.521Z,29.52
2023-04-19T07:05:49.798Z,28.10
2023-04-19T07:11:36.734Z,34.72
2023-04-19T07:17:24.159Z,27.38
2023-04-19T07:23:22.189Z,33.58
2023-04-19T07:29:27.580Z,39.55
2023-04-19T07:35:14.716Z,27.95
2023-04-19T07:41:02.368Z,32.65
2023-04-19T07:46:50.219Z,44.30
2023-04-19T07:52:40.115Z,35.78
2023-04-19T07:58:27.285Z,29.88
2023-04-19T08:04:14.608Z,29.63
2023-04-19T08:10:04.478Z,32.00
2023-04-19T08:17:18.495Z,26.58
2023-04-19T08:30:02.828Z,28.45
2023-04-19T08:36:08.838Z,26.02
2023-04-19T08:42:06.708Z,31.02
2023-04-19T08:48:01.852Z,33.90
2023-04-19T08:54:04.372Z,25.77
2023-04-19T08:59:57.911Z,24.50
2023-04-19T09:05:52.834Z,25.30
2023-04-19T09:11:50.304Z,25.83
2023-04-19T09:17:39.428Z,23.60
2023-04-19T09:23:29.604Z,29.35
2023-04-19T09:29:53.818Z,26.48
2023-04-19T09:35:48.888Z,27.27
2023-04-19T09:56:41.495Z,24.15
2023-04-19T10:27:11.100Z,14.40
2023-04-19T10:34:38.288Z,16.65
2023-04-19T10:48:29.631Z,19.33
2023-04-19T11:35:40.894Z,13.02
2023-04-19T11:41:27.818Z,13.10
2023-04-19T11:47:15.080Z,10.20
2023-04-19T11:53:20.629Z,12.27
2023-04-19T11:59:13.610Z,12.25
2023-04-19T12:05:10.484Z,12.75
2023-04-19T12:10:58.451Z,7.18
2023-04-19T12:16:46.263Z,7.05
2023-04-19T12:22:33.278Z,11.82
2023-04-19T12:28:20.134Z,7.78
2023-04-19T12:34:09.801Z,9.77
2023-04-19T12:39:59.678Z,8.55
2023-04-19T12:45:46.816Z,9.52
2023-04-19T12:51:33.840Z,6.40
2023-04-19T12:58:48.969Z,5.28
2023-04-19T13:04:37.377Z,6.55
2023-04-19T13:10:29.321Z,7.00
2023-04-19T13:16:17.020Z,7.67
2023-04-19T13:22:06.936Z,9.70
2023-04-19T13:27:55.514Z,5.47
2023-04-19T13:33:53.907Z,4.05
2023-04-19T13:39:48.627Z,6.53
2023-04-19T13:45:36.660Z,5.22
2023-04-19T13:51:23.948Z,6.55
2023-04-19T13:57:16.428Z,7.15
2023-04-19T14:03:04.639Z,8.57
2023-04-19T14:08:54.225Z,8.13
2023-04-19T14:14:44.380Z,9.77
2023-04-19T14:20:42.282Z,13.70
2023-04-19T14:26:30.695Z,8.95
2023-04-19T14:32:26.045Z,9.15
2023-04-19T14:38:14.575Z,8.90
2023-04-19T14:44:02.835Z,8.25
2023-04-19T14:49:53.697Z,19.60
2023-04-19T14:55:40.622Z,8.43
2023-04-19T15:01:28.129Z,12.73
2023-04-19T15:07:15.803Z,10.43
2023-04-19T15:13:03.211Z,9.35
2023-04-19T15:18:50.300Z,19.63
2023-04-19T15:24:40.464Z,6.80
2023-04-19T15:30:28.557Z,10.75
2023-04-19T15:36:19.094Z,8.45
2023-04-19T15:42:07.352Z,8.32
2023-04-19T15:49:05.500Z,10.30
2023-04-19T16:03:25.460Z,12.32
2023-04-19T16:09:13.835Z,13.93
2023-04-19T16:15:17.460Z,7.57
2023-04-19T16:41:39.228Z,12.60
2023-04-19T16:47:39.609Z,10.05
2023-04-19T16:53:27.604Z,11.63
2023-04-19T16:59:16.365Z,7.15
2023-04-19T17:05:06.739Z,10.88
2023-04-19T17:10:53.842Z,6.65
2023-04-19T17:16:41.365Z,3.80
2023-04-19T17:22:28.393Z,3.40
2023-04-19T17:28:15.684Z,4.43
2023-04-19T17:34:05.023Z,3.85
2023-04-19T17:39:52.082Z,13.32
2023-04-19T17:45:40.235Z,4.25
2023-04-19T17:51:27.067Z,6.70
2023-04-19T17:57:13.885Z,4.88
2023-04-19T18:03:01.464Z,23.10
2023-04-19T18:08:48.637Z,14.20
2023-04-19T18:14:36.852Z,9.77
2023-04-19T18:20:31.687Z,16.80
2023-04-19T18:26:19.510Z,11.00
2023-04-19T18:32:11.909Z,6.28
2023-04-19T18:44:06.545Z,17.67
2023-04-19T18:50:04.642Z,6.07
2023-04-19T18:55:57.595Z,8.13
2023-04-19T19:01:50.315Z,5.63
2023-04-19T19:07:38.250Z,11.90
2023-04-19T19:13:28.526Z,13.13
2023-04-19T19:19:20.192Z,13.70
2023-04-19T19:25:09.657Z,8.43
2023-04-19T19:30:58.624Z,4.83
2023-04-19T19:36:54.484Z,7.07
2023-04-19T19:42:47.436Z,3.78
2023-04-19T19:48:59.014Z,7.65
2023-04-19T19:54:54.094Z,6.10
2023-04-19T20:00:47.058Z,4.15
2023-04-19T20:13:01.664Z,7.32
2023-04-19T20:19:00.373Z,6.35
2023-04-19T20:25:02.679Z,3.17
2023-04-19T20:30:50.458Z,8.65
2023-04-19T20:36:50.345Z,7.80
2023-04-19T20:42:46.964Z,3.10
2023-04-19T20:56:38.244Z,9.80
2023-04-19T21:09:31.164Z,7.80
2023-04-19T21:15:18.166Z,6.82
2023-04-19T21:21:06.205Z,2.70
2023-04-19T21:26:52.930Z,4.35
2023-04-19T21:32:40.189Z,9.65
2023-04-19T21:38:37.831Z,6.10
2023-04-19T21:44:33.412Z,16.77
2023-04-19T21:59:13.023Z,8.38
2023-04-19T22:05:00.607Z,6.05
2023-04-19T22:10:50.288Z,3.85
2023-04-19T22:16:37.307Z,8.40
2023-04-19T22:22:39.357Z,3.53
2023-04-19T22:28:30.933Z,11.07
2023-04-19T22:49:06.335Z,4.10
2023-04-19T22:55:27.260Z,4.03
2023-04-19T23:01:15.572Z,6.00
2023-04-19T23:07:04.059Z,6.57
2023-04-19T23:12:51.312Z,4.63
2023-04-19T23:18:40.883Z,8.13
2023-04-19T23:24:27.645Z,11.70
2023-04-19T23:30:15.513Z,4.63
2023-04-19T23:36:02.394Z,6.57
2023-04-19T23:41:50.049Z,6.05
2023-04-19T23:47:36.831Z,12.95
2023-04-19T23:53:26.640Z,5.50
